sensor_id;sensor_type;location;lat;lon;timestamp;pressure;altitude;pressure_sealevel;temperature;humidity
62632;BME280;48703;51.248;-0.546;2022-07-26T00:02:47;101058;;;17.49;91.67
62632;BME280;48703;51.248;-0.546;2022-07-26T00:05:49;101059;;;17.47;91.82
62632;BME280;48703;51.248;-0.546;2022-07-26T00:08:51;101057;;;17.48;91.73
62632;BME280;48703;51.248;-0.546;2022-07-26T00:11:52;101051;;;17.46;91.39
62632;BME280;48703;51.248;-0.546;2022-07-26T00:14:54;101046;;;17.45;91.74
62632;BME280;48703;51.248;-0.546;2022-07-26T00:17:56;101049;;;17.45;91.59
62632;BME280;48703;51.248;-0.546;2022-07-26T00:20:58;101056;;;17.42;91.48
62632;BME280;48703;51.248;-0.546;2022-07-26T00:24:00;101054;;;17.40;91.37
62632;BME280;48703;51.248;-0.546;2022-07-26T00:27:02;101054;;;17.40;91.59
62632;BME280;48703;51.248;-0.546;2022-07-26T00:30:04;101060;;;17.38;91.62
62632;BME280;48703;51.248;-0.546;2022-07-26T00:33:05;101062;;;17.36;91.83
62632;BME280;48703;51.248;-0.546;2022-07-26T00:36:07;101056;;;17.36;92.10
62632;BME280;48703;51.248;-0.546;2022-07-26T00:39:09;101055;;;17.33;91.77
62632;BME280;48703;51.248;-0.546;2022-07-26T00:42:11;101055;;;17.33;91.64
62632;BME280;48703;51.248;-0.546;2022-07-26T00:45:13;101059;;;17.32;91.50
62632;BME280;48703;51.248;-0.546;2022-07-26T00:48:15;101056;;;17.30;91.56
62632;BME280;48703;51.248;-0.546;2022-07-26T00:51:17;101060;;;17.30;91.93
62632;BME280;48703;51.248;-0.546;2022-07-26T00:54:18;101060;;;17.27;91.16
62632;BME280;48703;51.248;-0.546;2022-07-26T00:57:20;101057;;;17.24;91.22
62632;BME280;48703;51.248;-0.546;2022-07-26T01:00:23;101056;;;17.24;91.75
62632;BME280;48703;51.248;-0.546;2022-07-26T01:03:24;101061;;;17.22;91.88
62632;BME280;48703;51.248;-0.546;2022-07-26T01:06:26;101062;;;17.20;91.82
62632;BME280;48703;51.248;-0.546;2022-07-26T01:09:28;101062;;;17.20;91.83
62632;BME280;48703;51.248;-0.546;2022-07-26T01:12:30;101062;;;17.18;91.56
62632;BME280;48703;51.248;-0.546;2022-07-26T01:15:31;101064;;;17.17;91.72
62632;BME280;48703;51.248;-0.546;2022-07-26T01:18:33;101064;;;17.14;91.71
62632;BME280;48703;51.248;-0.546;2022-07-26T01:21:35;101061;;;17.11;92.07
62632;BME280;48703;51.248;-0.546;2022-07-26T01:24:37;101068;;;17.09;92.27
62632;BME280;48703;51.248;-0.546;2022-07-26T01:27:39;101068;;;17.08;91.99
62632;BME280;48703;51.248;-0.546;2022-07-26T01:30:41;101068;;;17.06;92.00
62632;BME280;48703;51.248;-0.546;2022-07-26T01:33:43;101068;;;17.03;91.87
62632;BME280;48703;51.248;-0.546;2022-07-26T01:36:45;101070;;;16.99;92.09
62632;BME280;48703;51.248;-0.546;2022-07-26T01:39:46;101072;;;16.99;92.24
62632;BME280;48703;51.248;-0.546;2022-07-26T01:42:48;101068;;;16.98;92.07
62632;BME280;48703;51.248;-0.546;2022-07-26T01:45:50;101075;;;16.95;92.41
62632;BME280;48703;51.248;-0.546;2022-07-26T01:48:52;101083;;;16.93;92.44
62632;BME280;48703;51.248;-0.546;2022-07-26T01:51:54;101082;;;16.92;92.24
62632;BME280;48703;51.248;-0.546;2022-07-26T01:54:56;101084;;;16.92;92.54
62632;BME280;48703;51.248;-0.546;2022-07-26T01:57:57;101085;;;16.94;92.74
62632;BME280;48703;51.248;-0.546;2022-07-26T02:00:59;101080;;;16.94;92.87
62632;BME280;48703;51.248;-0.546;2022-07-26T02:04:01;101076;;;16.92;93.27
62632;BME280;48703;51.248;-0.546;2022-07-26T02:07:03;101074;;;16.89;93.13
62632;BME280;48703;51.248;-0.546;2022-07-26T02:10:05;101078;;;16.87;92.89
62632;BME280;48703;51.248;-0.546;2022-07-26T02:13:07;101078;;;16.85;92.09
62632;BME280;48703;51.248;-0.546;2022-07-26T02:16:10;101074;;;16.81;91.46
62632;BME280;48703;51.248;-0.546;2022-07-26T02:19:10;101075;;;16.78;91.33
62632;BME280;48703;51.248;-0.546;2022-07-26T02:22:12;101080;;;16.76;91.29
62632;BME280;48703;51.248;-0.546;2022-07-26T02:25:14;101080;;;16.73;90.59
62632;BME280;48703;51.248;-0.546;2022-07-26T02:28:16;101081;;;16.71;89.93
62632;BME280;48703;51.248;-0.546;2022-07-26T02:31:18;101084;;;16.70;90.04
62632;BME280;48703;51.248;-0.546;2022-07-26T02:34:20;101081;;;16.68;89.89
62632;BME280;48703;51.248;-0.546;2022-07-26T02:37:22;101088;;;16.67;89.68
62632;BME280;48703;51.248;-0.546;2022-07-26T02:40:23;101091;;;16.65;89.39
62632;BME280;48703;51.248;-0.546;2022-07-26T02:43:25;101094;;;16.64;89.25
62632;BME280;48703;51.248;-0.546;2022-07-26T02:46:27;101097;;;16.63;89.31
62632;BME280;48703;51.248;-0.546;2022-07-26T02:49:29;101097;;;16.62;88.91
62632;BME280;48703;51.248;-0.546;2022-07-26T02:52:31;101097;;;16.60;88.89
62632;BME280;48703;51.248;-0.546;2022-07-26T02:55:33;101102;;;16.61;89.14
62632;BME280;48703;51.248;-0.546;2022-07-26T02:58:35;101103;;;16.60;88.90
62632;BME280;48703;51.248;-0.546;2022-07-26T03:01:36;101107;;;16.58;88.89
62632;BME280;48703;51.248;-0.546;2022-07-26T03:04:38;101113;;;16.55;89.10
62632;BME280;48703;51.248;-0.546;2022-07-26T03:07:40;101112;;;16.53;89.44
62632;BME280;48703;51.248;-0.546;2022-07-26T03:10:42;101111;;;16.52;89.48
62632;BME280;48703;51.248;-0.546;2022-07-26T03:13:44;101113;;;16.50;89.47
62632;BME280;48703;51.248;-0.546;2022-07-26T03:16:46;101114;;;16.51;89.50
62632;BME280;48703;51.248;-0.546;2022-07-26T03:19:48;101116;;;16.49;89.43
62632;BME280;48703;51.248;-0.546;2022-07-26T03:22:50;101120;;;16.49;89.66
62632;BME280;48703;51.248;-0.546;2022-07-26T03:25:51;101116;;;16.48;89.55
62632;BME280;48703;51.248;-0.546;2022-07-26T03:28:53;101118;;;16.46;89.30
62632;BME280;48703;51.248;-0.546;2022-07-26T03:31:55;101124;;;16.46;89.50
62632;BME280;48703;51.248;-0.546;2022-07-26T03:34:57;101124;;;16.44;89.10
62632;BME280;48703;51.248;-0.546;2022-07-26T03:37:59;101129;;;16.42;89.41
62632;BME280;48703;51.248;-0.546;2022-07-26T03:41:01;101134;;;16.42;89.58
62632;BME280;48703;51.248;-0.546;2022-07-26T03:44:03;101138;;;16.39;89.79
62632;BME280;48703;51.248;-0.546;2022-07-26T03:47:04;101141;;;16.37;89.79
62632;BME280;48703;51.248;-0.546;2022-07-26T03:50:07;101145;;;16.33;90.47
62632;BME280;48703;51.248;-0.546;2022-07-26T03:53:08;101146;;;16.32;90.19
62632;BME280;48703;51.248;-0.546;2022-07-26T03:56:10;101148;;;16.29;90.44
62632;BME280;48703;51.248;-0.546;2022-07-26T03:59:12;101151;;;16.23;91.18
62632;BME280;48703;51.248;-0.546;2022-07-26T04:02:14;101151;;;16.19;91.58
62632;BME280;48703;51.248;-0.546;2022-07-26T04:05:16;101151;;;16.17;92.08
62632;BME280;48703;51.248;-0.546;2022-07-26T04:08:17;101154;;;16.16;92.71
62632;BME280;48703;51.248;-0.546;2022-07-26T04:11:19;101157;;;16.11;92.90
62632;BME280;48703;51.248;-0.546;2022-07-26T04:14:21;101157;;;16.06;93.42
62632;BME280;48703;51.248;-0.546;2022-07-26T04:17:23;101154;;;16.04;93.80
62632;BME280;48703;51.248;-0.546;2022-07-26T04:20:25;101156;;;16.01;94.00
62632;BME280;48703;51.248;-0.546;2022-07-26T04:23:27;101159;;;15.98;94.23
62632;BME280;48703;51.248;-0.546;2022-07-26T04:26:29;101159;;;15.96;94.29
62632;BME280;48703;51.248;-0.546;2022-07-26T04:29:30;101165;;;15.94;94.50
62632;BME280;48703;51.248;-0.546;2022-07-26T04:32:32;101166;;;15.93;94.58
62632;BME280;48703;51.248;-0.546;2022-07-26T04:35:34;101169;;;15.92;94.64
62632;BME280;48703;51.248;-0.546;2022-07-26T04:38:36;101177;;;15.91;95.25
62632;BME280;48703;51.248;-0.546;2022-07-26T04:41:38;101180;;;15.90;95.20
62632;BME280;48703;51.248;-0.546;2022-07-26T04:44:40;101184;;;15.90;95.33
62632;BME280;48703;51.248;-0.546;2022-07-26T04:47:42;101183;;;15.87;95.67
62632;BME280;48703;51.248;-0.546;2022-07-26T04:50:43;101183;;;15.87;95.55
62632;BME280;48703;51.248;-0.546;2022-07-26T04:53:45;101187;;;15.88;95.61
62632;BME280;48703;51.248;-0.546;2022-07-26T04:56:47;101191;;;15.85;95.75
62632;BME280;48703;51.248;-0.546;2022-07-26T04:59:49;101194;;;15.85;95.92
62632;BME280;48703;51.248;-0.546;2022-07-26T05:02:51;101194;;;15.80;96.20
62632;BME280;48703;51.248;-0.546;2022-07-26T05:05:53;101199;;;15.75;96.67
62632;BME280;48703;51.248;-0.546;2022-07-26T05:08:55;101201;;;15.72;96.86
62632;BME280;48703;51.248;-0.546;2022-07-26T05:11:56;101203;;;15.73;97.07
62632;BME280;48703;51.248;-0.546;2022-07-26T05:14:58;101204;;;15.73;97.56
62632;BME280;48703;51.248;-0.546;2022-07-26T05:18:01;101207;;;15.69;98.02
62632;BME280;48703;51.248;-0.546;2022-07-26T05:21:02;101210;;;15.70;98.30
62632;BME280;48703;51.248;-0.546;2022-07-26T05:24:04;101213;;;15.72;98.17
62632;BME280;48703;51.248;-0.546;2022-07-26T05:27:06;101217;;;15.73;98.23
62632;BME280;48703;51.248;-0.546;2022-07-26T05:30:08;101223;;;15.71;98.75
62632;BME280;48703;51.248;-0.546;2022-07-26T05:33:09;101226;;;15.68;99.04
62632;BME280;48703;51.248;-0.546;2022-07-26T05:36:11;101232;;;15.65;99.32
62632;BME280;48703;51.248;-0.546;2022-07-26T05:39:13;101235;;;15.58;99.93
62632;BME280;48703;51.248;-0.546;2022-07-26T05:42:15;101236;;;15.59;99.64
62632;BME280;48703;51.248;-0.546;2022-07-26T05:45:17;101234;;;15.63;99.59
62632;BME280;48703;51.248;-0.546;2022-07-26T05:48:19;101234;;;15.68;99.22
62632;BME280;48703;51.248;-0.546;2022-07-26T05:51:21;101235;;;15.70;98.98
62632;BME280;48703;51.248;-0.546;2022-07-26T05:54:22;101235;;;15.72;99.37
62632;BME280;48703;51.248;-0.546;2022-07-26T05:57:24;101235;;;15.76;99.36
62632;BME280;48703;51.248;-0.546;2022-07-26T06:00:26;101242;;;15.75;99.56
62632;BME280;48703;51.248;-0.546;2022-07-26T06:03:29;101246;;;15.73;99.81
62632;BME280;48703;51.248;-0.546;2022-07-26T06:06:30;101245;;;15.74;100.00
62632;BME280;48703;51.248;-0.546;2022-07-26T06:09:32;101242;;;15.69;100.00
62632;BME280;48703;51.248;-0.546;2022-07-26T06:12:34;101240;;;15.66;100.00
62632;BME280;48703;51.248;-0.546;2022-07-26T06:15:36;101244;;;15.66;100.00
62632;BME280;48703;51.248;-0.546;2022-07-26T06:18:37;101245;;;15.65;100.00
62632;BME280;48703;51.248;-0.546;2022-07-26T06:21:39;101242;;;15.65;100.00
62632;BME280;48703;51.248;-0.546;2022-07-26T06:24:41;101241;;;15.67;100.00
62632;BME280;48703;51.248;-0.546;2022-07-26T06:27:43;101244;;;15.72;100.00
62632;BME280;48703;51.248;-0.546;2022-07-26T06:30:45;101249;;;15.73;100.00
62632;BME280;48703;51.248;-0.546;2022-07-26T06:33:47;101250;;;15.72;100.00
62632;BME280;48703;51.248;-0.546;2022-07-26T06:36:49;101253;;;15.75;100.00
62632;BME280;48703;51.248;-0.546;2022-07-26T06:39:50;101258;;;15.79;100.00
62632;BME280;48703;51.248;-0.546;2022-07-26T06:42:52;101260;;;15.71;100.00
62632;BME280;48703;51.248;-0.546;2022-07-26T06:45:54;101265;;;15.70;100.00
62632;BME280;48703;51.248;-0.546;2022-07-26T06:48:56;101270;;;15.70;100.00
62632;BME280;48703;51.248;-0.546;2022-07-26T06:51:58;101273;;;15.71;100.00
62632;BME280;48703;51.248;-0.546;2022-07-26T06:55:00;101274;;;15.69;100.00
62632;BME280;48703;51.248;-0.546;2022-07-26T06:58:02;101279;;;15.69;100.00
62632;BME280;48703;51.248;-0.546;2022-07-26T07:01:03;101285;;;15.67;100.00
62632;BME280;48703;51.248;-0.546;2022-07-26T07:04:05;101288;;;15.68;100.00
62632;BME280;48703;51.248;-0.546;2022-07-26T07:07:07;101286;;;15.70;100.00
62632;BME280;48703;51.248;-0.546;2022-07-26T07:10:09;101290;;;15.76;100.00
62632;BME280;48703;51.248;-0.546;2022-07-26T07:13:11;101290;;;15.76;100.00
62632;BME280;48703;51.248;-0.546;2022-07-26T07:16:13;101290;;;15.75;100.00
62632;BME280;48703;51.248;-0.546;2022-07-26T07:19:15;101292;;;15.78;100.00
62632;BME280;48703;51.248;-0.546;2022-07-26T07:22:16;101296;;;15.84;100.00
62632;BME280;48703;51.248;-0.546;2022-07-26T07:25:18;101298;;;15.91;100.00
62632;BME280;48703;51.248;-0.546;2022-07-26T07:28:20;101300;;;15.94;100.00
62632;BME280;48703;51.248;-0.546;2022-07-26T07:31:22;101296;;;15.99;100.00
62632;BME280;48703;51.248;-0.546;2022-07-26T07:34:24;101302;;;16.06;100.00
62632;BME280;48703;51.248;-0.546;2022-07-26T07:37:26;101301;;;16.07;100.00
62632;BME280;48703;51.248;-0.546;2022-07-26T07:40:28;101296;;;16.07;100.00
62632;BME280;48703;51.248;-0.546;2022-07-26T07:43:29;101290;;;16.11;100.00
62632;BME280;48703;51.248;-0.546;2022-07-26T07:46:31;101292;;;16.19;100.00
62632;BME280;48703;51.248;-0.546;2022-07-26T07:49:33;101296;;;16.23;100.00
62632;BME280;48703;51.248;-0.546;2022-07-26T07:52:35;101296;;;16.25;100.00
62632;BME280;48703;51.248;-0.546;2022-07-26T07:55:37;101300;;;16.33;100.00
62632;BME280;48703;51.248;-0.546;2022-07-26T07:58:39;101306;;;16.37;100.00
62632;BME280;48703;51.248;-0.546;2022-07-26T08:01:41;101309;;;16.38;100.00
62632;BME280;48703;51.248;-0.546;2022-07-26T08:04:42;101313;;;16.46;100.00
62632;BME280;48703;51.248;-0.546;2022-07-26T08:07:44;101314;;;16.56;100.00
62632;BME280;48703;51.248;-0.546;2022-07-26T08:10:46;101317;;;16.67;100.00
62632;BME280;48703;51.248;-0.546;2022-07-26T08:13:48;101320;;;16.75;100.00
62632;BME280;48703;51.248;-0.546;2022-07-26T08:16:50;101319;;;16.72;100.00
62632;BME280;48703;51.248;-0.546;2022-07-26T08:19:52;101320;;;16.70;100.00
62632;BME280;48703;51.248;-0.546;2022-07-26T08:22:54;101321;;;16.71;100.00
62632;BME280;48703;51.248;-0.546;2022-07-26T08:25:55;101322;;;16.76;100.00
62632;BME280;48703;51.248;-0.546;2022-07-26T08:28:57;101321;;;16.81;100.00
62632;BME280;48703;51.248;-0.546;2022-07-26T08:31:59;101320;;;16.88;100.00
62632;BME280;48703;51.248;-0.546;2022-07-26T08:35:01;101325;;;16.93;100.00
62632;BME280;48703;51.248;-0.546;2022-07-26T08:38:03;101329;;;16.93;100.00
62632;BME280;48703;51.248;-0.546;2022-07-26T08:41:05;101334;;;16.96;100.00
62632;BME280;48703;51.248;-0.546;2022-07-26T08:44:07;101334;;;16.93;100.00
62632;BME280;48703;51.248;-0.546;2022-07-26T08:47:09;101334;;;16.95;100.00
62632;BME280;48703;51.248;-0.546;2022-07-26T08:50:10;101336;;;17.00;100.00
62632;BME280;48703;51.248;-0.546;2022-07-26T08:53:12;101336;;;16.97;100.00
62632;BME280;48703;51.248;-0.546;2022-07-26T08:56:14;101339;;;17.02;100.00
62632;BME280;48703;51.248;-0.546;2022-07-26T08:59:16;101339;;;17.10;100.00
62632;BME280;48703;51.248;-0.546;2022-07-26T09:02:18;101336;;;17.15;100.00
62632;BME280;48703;51.248;-0.546;2022-07-26T09:05:25;101334;;;17.22;100.00
62632;BME280;48703;51.248;-0.546;2022-07-26T09:08:23;101338;;;17.33;100.00
62632;BME280;48703;51.248;-0.546;2022-07-26T09:11:26;101343;;;17.40;99.99
62632;BME280;48703;51.248;-0.546;2022-07-26T09:14:34;101340;;;17.39;99.98
62632;BME280;48703;51.248;-0.546;2022-07-26T09:17:36;101339;;;17.44;100.00
62632;BME280;48703;51.248;-0.546;2022-07-26T09:20:30;101339;;;17.51;100.00
62632;BME280;48703;51.248;-0.546;2022-07-26T09:23:37;101341;;;17.55;100.00
62632;BME280;48703;51.248;-0.546;2022-07-26T09:26:33;101339;;;17.58;100.00
62632;BME280;48703;51.248;-0.546;2022-07-26T09:29:43;101342;;;17.60;99.64
62632;BME280;48703;51.248;-0.546;2022-07-26T09:32:36;101346;;;17.56;99.74
62632;BME280;48703;51.248;-0.546;2022-07-26T09:35:38;101351;;;17.54;99.90
62632;BME280;48703;51.248;-0.546;2022-07-26T09:38:41;101352;;;17.55;99.97
62632;BME280;48703;51.248;-0.546;2022-07-26T09:41:42;101353;;;17.61;99.53
62632;BME280;48703;51.248;-0.546;2022-07-26T09:44:44;101354;;;17.67;99.20
62632;BME280;48703;51.248;-0.546;2022-07-26T09:47:46;101357;;;17.70;98.93
62632;BME280;48703;51.248;-0.546;2022-07-26T09:50:48;101360;;;17.72;98.94
62632;BME280;48703;51.248;-0.546;2022-07-26T09:53:49;101363;;;17.71;98.92
62632;BME280;48703;51.248;-0.546;2022-07-26T09:56:51;101365;;;17.68;99.28
62632;BME280;48703;51.248;-0.546;2022-07-26T09:59:53;101370;;;17.70;99.40
62632;BME280;48703;51.248;-0.546;2022-07-26T10:02:55;101371;;;17.72;99.29
62632;BME280;48703;51.248;-0.546;2022-07-26T10:05:57;101375;;;17.68;98.72
62632;BME280;48703;51.248;-0.546;2022-07-26T10:08:59;101376;;;17.67;98.61
62632;BME280;48703;51.248;-0.546;2022-07-26T10:12:02;101377;;;17.70;98.64
62632;BME280;48703;51.248;-0.546;2022-07-26T10:14:33;101384;;;17.73;98.89
62632;BME280;48703;51.248;-0.546;2022-07-26T10:17:39;101387;;;17.71;98.34
62632;BME280;48703;51.248;-0.546;2022-07-26T10:20:06;101385;;;17.75;98.27
62632;BME280;48703;51.248;-0.546;2022-07-26T10:23:31;101390;;;17.80;97.48
62632;BME280;48703;51.248;-0.546;2022-07-26T10:26:11;101391;;;17.84;97.76
62632;BME280;48703;51.248;-0.546;2022-07-26T10:29:26;101388;;;17.89;96.68
62632;BME280;48703;51.248;-0.546;2022-07-26T10:32:14;101388;;;17.95;96.72
62632;BME280;48703;51.248;-0.546;2022-07-26T10:35:28;101386;;;18.07;96.11
62632;BME280;48703;51.248;-0.546;2022-07-26T10:38:22;101387;;;18.17;94.37
62632;BME280;48703;51.248;-0.546;2022-07-26T10:41:30;101391;;;18.23;93.97
62632;BME280;48703;51.248;-0.546;2022-07-26T10:44:21;101391;;;18.36;93.20
62632;BME280;48703;51.248;-0.546;2022-07-26T10:47:22;101386;;;18.44;91.93
62632;BME280;48703;51.248;-0.546;2022-07-26T10:50:31;101380;;;18.51;92.28
62632;BME280;48703;51.248;-0.546;2022-07-26T10:53:26;101382;;;18.54;89.43
62632;BME280;48703;51.248;-0.546;2022-07-26T10:56:28;101387;;;18.55;89.72
62632;BME280;48703;51.248;-0.546;2022-07-26T10:59:30;101390;;;18.56;89.76
62632;BME280;48703;51.248;-0.546;2022-07-26T11:02:32;101386;;;18.60;90.66
62632;BME280;48703;51.248;-0.546;2022-07-26T11:05:33;101375;;;18.62;89.74
62632;BME280;48703;51.248;-0.546;2022-07-26T11:08:35;101373;;;18.65;89.41
62632;BME280;48703;51.248;-0.546;2022-07-26T11:11:37;101374;;;18.67;88.60
62632;BME280;48703;51.248;-0.546;2022-07-26T11:14:39;101375;;;18.66;88.82
62632;BME280;48703;51.248;-0.546;2022-07-26T11:17:41;101371;;;18.66;88.96
62632;BME280;48703;51.248;-0.546;2022-07-26T11:20:43;101370;;;18.65;88.05
62632;BME280;48703;51.248;-0.546;2022-07-26T11:23:45;101370;;;18.69;89.08
62632;BME280;48703;51.248;-0.546;2022-07-26T11:26:46;101366;;;18.71;88.81
62632;BME280;48703;51.248;-0.546;2022-07-26T11:29:48;101371;;;18.76;88.71
62632;BME280;48703;51.248;-0.546;2022-07-26T11:32:50;101362;;;18.76;87.85
62632;BME280;48703;51.248;-0.546;2022-07-26T11:35:52;101354;;;18.76;87.71
62632;BME280;48703;51.248;-0.546;2022-07-26T11:38:54;101353;;;18.81;88.14
62632;BME280;48703;51.248;-0.546;2022-07-26T11:41:56;101369;;;18.87;88.03
62632;BME280;48703;51.248;-0.546;2022-07-26T11:44:58;101378;;;18.90;88.26
62632;BME280;48703;51.248;-0.546;2022-07-26T11:47:59;101385;;;18.94;88.63
62632;BME280;48703;51.248;-0.546;2022-07-26T11:51:09;101388;;;18.95;88.73
62632;BME280;48703;51.248;-0.546;2022-07-26T11:54:03;101387;;;19.01;89.02
62632;BME280;48703;51.248;-0.546;2022-07-26T11:57:05;101388;;;19.03;88.31
62632;BME280;48703;51.248;-0.546;2022-07-26T12:00:07;101390;;;19.07;87.87
62632;BME280;48703;51.248;-0.546;2022-07-26T12:03:09;101394;;;19.07;87.82
62632;BME280;48703;51.248;-0.546;2022-07-26T12:06:11;101395;;;19.07;87.00
62632;BME280;48703;51.248;-0.546;2022-07-26T12:09:26;101389;;;18.98;86.51
62632;BME280;48703;51.248;-0.546;2022-07-26T12:12:18;101395;;;19.00;87.22
62632;BME280;48703;51.248;-0.546;2022-07-26T12:15:16;101400;;;18.99;88.90
62632;BME280;48703;51.248;-0.546;2022-07-26T12:18:22;101403;;;18.97;88.12
62632;BME280;48703;51.248;-0.546;2022-07-26T12:21:20;101401;;;18.96;88.46
62632;BME280;48703;51.248;-0.546;2022-07-26T12:24:39;101399;;;18.98;88.76
62632;BME280;48703;51.248;-0.546;2022-07-26T12:27:24;101400;;;19.01;88.36
62632;BME280;48703;51.248;-0.546;2022-07-26T12:30:25;101403;;;19.06;87.85
62632;BME280;48703;51.248;-0.546;2022-07-26T12:33:27;101403;;;19.11;87.45
62632;BME280;48703;51.248;-0.546;2022-07-26T12:36:29;101404;;;19.12;87.47
62632;BME280;48703;51.248;-0.546;2022-07-26T12:39:31;101400;;;19.20;87.63
62632;BME280;48703;51.248;-0.546;2022-07-26T12:42:33;101405;;;19.26;87.51
62632;BME280;48703;51.248;-0.546;2022-07-26T12:45:35;101406;;;19.34;87.93
62632;BME280;48703;51.248;-0.546;2022-07-26T12:48:37;101410;;;19.42;88.59
62632;BME280;48703;51.248;-0.546;2022-07-26T12:51:38;101412;;;19.47;88.89
62632;BME280;48703;51.248;-0.546;2022-07-26T12:54:41;101406;;;19.53;87.90
62632;BME280;48703;51.248;-0.546;2022-07-26T12:57:42;101404;;;19.65;87.62
62632;BME280;48703;51.248;-0.546;2022-07-26T13:00:44;101394;;;19.80;87.79
62632;BME280;48703;51.248;-0.546;2022-07-26T13:03:46;101391;;;19.90;86.93
62632;BME280;48703;51.248;-0.546;2022-07-26T13:06:48;101388;;;20.01;86.67
62632;BME280;48703;51.248;-0.546;2022-07-26T13:09:50;101385;;;20.05;84.75
62632;BME280;48703;51.248;-0.546;2022-07-26T13:12:51;101383;;;20.12;84.64
62632;BME280;48703;51.248;-0.546;2022-07-26T13:15:53;101382;;;20.17;84.70
62632;BME280;48703;51.248;-0.546;2022-07-26T13:18:55;101377;;;20.26;85.37
62632;BME280;48703;51.248;-0.546;2022-07-26T13:21:57;101377;;;20.38;86.13
62632;BME280;48703;51.248;-0.546;2022-07-26T13:24:59;101379;;;20.38;81.77
62632;BME280;48703;51.248;-0.546;2022-07-26T13:28:01;101382;;;20.29;81.28
62632;BME280;48703;51.248;-0.546;2022-07-26T13:31:03;101377;;;20.25;81.07
62632;BME280;48703;51.248;-0.546;2022-07-26T13:34:04;101374;;;20.27;81.93
62632;BME280;48703;51.248;-0.546;2022-07-26T13:37:06;101372;;;20.26;81.21
62632;BME280;48703;51.248;-0.546;2022-07-26T13:40:09;101364;;;20.26;80.44
62632;BME280;48703;51.248;-0.546;2022-07-26T13:43:10;101361;;;20.38;79.77
62632;BME280;48703;51.248;-0.546;2022-07-26T13:46:12;101363;;;20.54;80.70
62632;BME280;48703;51.248;-0.546;2022-07-26T13:49:14;101364;;;20.65;80.06
62632;BME280;48703;51.248;-0.546;2022-07-26T13:52:16;101364;;;20.67;76.98
62632;BME280;48703;51.248;-0.546;2022-07-26T13:55:18;101365;;;20.73;78.29
62632;BME280;48703;51.248;-0.546;2022-07-26T13:58:19;101368;;;20.77;78.18
62632;BME280;48703;51.248;-0.546;2022-07-26T14:01:21;101371;;;20.70;76.90
62632;BME280;48703;51.248;-0.546;2022-07-26T14:04:23;101369;;;20.66;77.99
62632;BME280;48703;51.248;-0.546;2022-07-26T14:07:25;101369;;;20.63;76.48
62632;BME280;48703;51.248;-0.546;2022-07-26T14:10:27;101367;;;20.61;77.94
62632;BME280;48703;51.248;-0.546;2022-07-26T14:13:29;101368;;;20.71;78.36
62632;BME280;48703;51.248;-0.546;2022-07-26T14:16:31;101367;;;20.69;77.93
62632;BME280;48703;51.248;-0.546;2022-07-26T14:19:32;101368;;;20.69;78.36
62632;BME280;48703;51.248;-0.546;2022-07-26T14:22:34;101365;;;20.69;79.29
62632;BME280;48703;51.248;-0.546;2022-07-26T14:25:36;101362;;;20.77;77.11
62632;BME280;48703;51.248;-0.546;2022-07-26T14:28:38;101367;;;20.86;76.61
62632;BME280;48703;51.248;-0.546;2022-07-26T14:31:40;101363;;;20.95;77.33
62632;BME280;48703;51.248;-0.546;2022-07-26T14:34:42;101372;;;20.95;75.58
62632;BME280;48703;51.248;-0.546;2022-07-26T14:37:43;101367;;;20.80;75.76
62632;BME280;48703;51.248;-0.546;2022-07-26T14:40:45;101368;;;20.90;76.77
62632;BME280;48703;51.248;-0.546;2022-07-26T14:43:47;101366;;;21.03;75.58
62632;BME280;48703;51.248;-0.546;2022-07-26T14:46:49;101364;;;21.17;72.41
62632;BME280;48703;51.248;-0.546;2022-07-26T14:49:51;101362;;;21.30;74.80
62632;BME280;48703;51.248;-0.546;2022-07-26T14:52:53;101362;;;21.40;71.10
62632;BME280;48703;51.248;-0.546;2022-07-26T14:55:55;101363;;;21.57;72.10
62632;BME280;48703;51.248;-0.546;2022-07-26T14:58:56;101358;;;21.73;71.65
62632;BME280;48703;51.248;-0.546;2022-07-26T15:01:58;101361;;;21.86;70.72
62632;BME280;48703;51.248;-0.546;2022-07-26T15:05:00;101365;;;21.97;69.28
62632;BME280;48703;51.248;-0.546;2022-07-26T15:08:02;101365;;;22.13;69.28
62632;BME280;48703;51.248;-0.546;2022-07-26T15:11:04;101361;;;22.23;69.24
62632;BME280;48703;51.248;-0.546;2022-07-26T15:14:06;101360;;;22.21;66.58
62632;BME280;48703;51.248;-0.546;2022-07-26T15:17:08;101358;;;22.05;67.23
62632;BME280;48703;51.248;-0.546;2022-07-26T15:20:09;101354;;;21.97;67.91
62632;BME280;48703;51.248;-0.546;2022-07-26T15:23:11;101348;;;21.93;68.24
62632;BME280;48703;51.248;-0.546;2022-07-26T15:26:13;101351;;;21.84;67.94
62632;BME280;48703;51.248;-0.546;2022-07-26T15:29:15;101349;;;21.80;68.57
62632;BME280;48703;51.248;-0.546;2022-07-26T15:32:18;101349;;;21.69;68.75
62632;BME280;48703;51.248;-0.546;2022-07-26T15:35:19;101354;;;21.53;69.88
62632;BME280;48703;51.248;-0.546;2022-07-26T15:38:21;101356;;;21.40;70.89
62632;BME280;48703;51.248;-0.546;2022-07-26T15:41:22;101354;;;21.30;71.34
62632;BME280;48703;51.248;-0.546;2022-07-26T15:44:24;101354;;;21.30;72.05
62632;BME280;48703;51.248;-0.546;2022-07-26T15:47:26;101356;;;21.31;71.87
62632;BME280;48703;51.248;-0.546;2022-07-26T15:50:28;101352;;;21.26;72.31
62632;BME280;48703;51.248;-0.546;2022-07-26T15:53:30;101350;;;21.23;71.98
62632;BME280;48703;51.248;-0.546;2022-07-26T15:56:32;101351;;;21.28;71.13
62632;BME280;48703;51.248;-0.546;2022-07-26T15:59:34;101349;;;21.50;71.08
62632;BME280;48703;51.248;-0.546;2022-07-26T16:02:36;101345;;;21.70;68.24
62632;BME280;48703;51.248;-0.546;2022-07-26T16:05:37;101343;;;21.76;68.25
62632;BME280;48703;51.248;-0.546;2022-07-26T16:08:39;101341;;;21.81;67.02
62632;BME280;48703;51.248;-0.546;2022-07-26T16:11:41;101335;;;22.05;67.78
62632;BME280;48703;51.248;-0.546;2022-07-26T16:14:43;101332;;;22.33;67.94